createdAt,value
2018-05-06T00:01:05.723Z,6.11
2018-05-06T00:07:00.674Z,6.25
2018-05-06T00:12:55.683Z,7.02
2018-05-06T00:18:50.658Z,6.96
2018-05-06T00:24:45.657Z,6.59
2018-05-06T00:30:40.676Z,7.68
2018-05-06T00:36:35.654Z,6.8
2018-05-06T00:42:30.671Z,7.28
2018-05-06T00:48:25.680Z,7.34
2018-05-06T00:54:20.674Z,6.69
2018-05-06T01:00:15.694Z,6.56
2018-05-06T01:06:10.752Z,6.85
2018-05-06T01:12:05.714Z,6.33
2018-05-06T01:18:00.680Z,7.55
2018-05-06T01:23:55.725Z,6.37
2018-05-06T01:29:50.678Z,7.2
2018-05-06T01:35:45.686Z,6.14
2018-05-06T01:41:40.729Z,6.78
2018-05-06T01:47:35.688Z,6.73
2018-05-06T01:53:30.731Z,6.72
2018-05-06T01:59:25.751Z,6.73
2018-05-06T02:05:20.749Z,7.54
2018-05-06T02:11:15.774Z,7.41
2018-05-06T02:17:10.764Z,7.58
2018-05-06T02:23:05.801Z,7.8
2018-05-06T02:29:00.756Z,7.03
2018-05-06T02:34:55.758Z,6.7
2018-05-06T02:40:50.755Z,7.79
2018-05-06T02:46:45.732Z,7.21
2018-05-06T02:52:40.779Z,8.07
2018-05-06T02:58:35.756Z,8.61
2018-05-06T03:04:30.754Z,7.27
2018-05-06T03:10:25.796Z,7.61
2018-05-06T03:16:20.818Z,7.65
2018-05-06T03:22:15.784Z,8.08
2018-05-06T03:28:10.782Z,10.35
2018-05-06T03:34:05.749Z,9.38
2018-05-06T03:40:00.803Z,8.47
2018-05-06T03:45:55.832Z,9.63
2018-05-06T03:51:50.791Z,9.6
2018-05-06T03:57:45.801Z,8.26
2018-05-06T04:03:40.783Z,8.73
2018-05-06T04:09:35.782Z,8.13
2018-05-06T04:15:30.770Z,7.89
2018-05-06T04:21:25.841Z,8.43
2018-05-06T04:27:20.817Z,7.9
2018-05-06T04:33:15.787Z,7.86
2018-05-06T04:39:10.858Z,7.67
2018-05-06T04:45:05.847Z,8.31
2018-05-06T04:51:00.832Z,8.25
2018-05-06T04:56:55.854Z,7.75
2018-05-06T05:02:50.837Z,8.61
2018-05-06T05:08:45.833Z,8.08
2018-05-06T05:14:40.851Z,8.48
2018-05-06T05:20:35.819Z,8.75
2018-05-06T05:26:30.842Z,8.51
2018-05-06T05:32:25.821Z,9.52
2018-05-06T05:38:20.884Z,8.74
2018-05-06T05:44:15.883Z,9.16
2018-05-06T05:50:10.849Z,8.98
2018-05-06T05:56:05.905Z,8.18
2018-05-06T06:02:00.883Z,9.25
2018-05-06T06:07:55.892Z,8.43
2018-05-06T06:13:50.883Z,8.58
2018-05-06T06:19:45.855Z,8.16
2018-05-06T06:25:40.892Z,9
2018-05-06T06:31:35.905Z,8.72
2018-05-06T06:37:30.907Z,8.96
2018-05-06T06:43:25.879Z,8.6
2018-05-06T06:49:20.909Z,10.77
2018-05-06T06:55:15.953Z,9.87
2018-05-06T07:01:10.887Z,11.13
2018-05-06T07:07:05.930Z,11.6
2018-05-06T07:13:00.928Z,21.28
2018-05-06T07:18:55.926Z,20
2018-05-06T07:24:50.918Z,18.75
2018-05-06T07:30:45.931Z,17.12
2018-05-06T07:36:40.925Z,22.63
2018-05-06T07:42:35.926Z,20.5
2018-05-06T07:48:30.965Z,21.57
2018-05-06T07:54:25.977Z,17.65
2018-05-06T08:00:20.960Z,16.64
2018-05-06T08:06:16.010Z,14.46
2018-05-06T08:12:10.974Z,12.9
2018-05-06T08:18:05.999Z,12.82
2018-05-06T08:24:00.962Z,12.54
2018-05-06T08:29:55.995Z,9.68
2018-05-06T08:35:50.993Z,11.55
2018-05-06T08:41:46.006Z,14
2018-05-06T08:47:40.980Z,13.22
2018-05-06T08:53:35.993Z,13.58
2018-05-06T08:59:31.141Z,13.82
2018-05-06T09:05:25.988Z,14.65
2018-05-06T09:11:21.068Z,13.26
2018-05-06T09:17:16.029Z,12.45
2018-05-06T09:23:11.055Z,9.64
2018-05-06T09:29:06.027Z,9.31
2018-05-06T09:35:01.035Z,12.34
2018-05-06T09:40:56.043Z,9.94
2018-05-06T09:46:51.023Z,11.62
2018-05-06T09:52:46.060Z,10.07
2018-05-06T09:58:41.043Z,10.2
2018-05-06T10:04:36.058Z,6.8
2018-05-06T10:10:31.054Z,7.02
2018-05-06T10:16:26.065Z,7.1
2018-05-06T10:22:21.133Z,6.21
2018-05-06T10:28:16.077Z,7.01
2018-05-06T10:34:11.059Z,6.33
2018-05-06T10:40:06.052Z,6.38
2018-05-06T10:46:01.049Z,7.17
2018-05-06T10:51:56.072Z,7.01
2018-05-06T10:57:51.095Z,6.18
2018-05-06T11:03:46.096Z,7
2018-05-06T11:09:41.059Z,7.53
2018-05-06T11:15:36.092Z,7.19
2018-05-06T11:21:31.288Z,8.07
2018-05-06T11:27:26.088Z,9.53
2018-05-06T11:33:21.187Z,8.86
2018-05-06T11:39:16.102Z,8.97
2018-05-06T11:45:11.094Z,9.16
2018-05-06T11:51:06.131Z,8.94
2018-05-06T11:57:01.101Z,8.19
2018-05-06T12:02:56.154Z,8.14
2018-05-06T12:08:51.143Z,8.88
2018-05-06T12:14:46.130Z,8.73
2018-05-06T12:20:41.144Z,8.15
2018-05-06T12:26:36.128Z,8.55
2018-05-06T12:32:31.149Z,8.84
2018-05-06T12:38:26.183Z,8.53
2018-05-06T12:44:21.143Z,8.54
2018-05-06T12:50:16.138Z,7.82
2018-05-06T12:56:11.166Z,8.75
2018-05-06T13:02:06.182Z,7.91
2018-05-06T13:08:01.187Z,8.13
2018-05-06T13:13:56.172Z,7.4
2018-05-06T13:19:51.190Z,8.07
2018-05-06T13:25:46.209Z,8.11
2018-05-06T13:31:41.204Z,8.17
2018-05-06T13:37:36.197Z,8.73
2018-05-06T13:43:31.246Z,8.74
2018-05-06T13:49:26.205Z,9.52
2018-05-06T13:55:21.247Z,9.26
2018-05-06T14:01:16.237Z,9.99
2018-05-06T14:07:11.203Z,10.54
2018-05-06T14:13:06.249Z,10.27
2018-05-06T14:19:01.253Z,10.09
2018-05-06T14:24:56.223Z,9.97
2018-05-06T14:30:51.245Z,9.89
2018-05-06T14:36:46.270Z,9.63
2018-05-06T14:42:41.273Z,9.48
2018-05-06T14:48:36.262Z,9.62
2018-05-06T14:54:31.258Z,9.36
2018-05-06T15:00:26.243Z,9.76
2018-05-06T15:06:21.257Z,9.63
2018-05-06T15:12:16.319Z,8.97
2018-05-06T15:18:11.261Z,10.23
2018-05-06T15:24:06.268Z,9.6
2018-05-06T15:30:01.278Z,8.99
2018-05-06T15:35:56.361Z,9.8
2018-05-06T15:41:51.431Z,9.67
2018-05-06T15:47:46.297Z,9.59
2018-05-06T15:53:41.325Z,9.31
2018-05-06T15:59:36.312Z,8.58
2018-05-06T16:05:31.323Z,8.47
2018-05-06T16:11:26.311Z,10.75
2018-05-06T16:17:21.295Z,10.32
2018-05-06T16:23:16.343Z,9.53
2018-05-06T16:29:11.320Z,9.19
2018-05-06T16:35:06.306Z,9.08
2018-05-06T16:41:01.364Z,11.2
2018-05-06T16:46:56.324Z,10.26
2018-05-06T16:52:51.352Z,11.93
2018-05-06T16:58:46.340Z,13.05
2018-05-06T17:04:41.404Z,12.75
2018-05-06T17:10:36.371Z,12.61
2018-05-06T17:16:31.362Z,13
2018-05-06T17:22:26.355Z,12.44
2018-05-06T17:28:21.348Z,12.17
2018-05-06T17:34:16.415Z,12.67
2018-05-06T17:40:11.362Z,12.62
2018-05-06T17:46:06.382Z,12.01
2018-05-06T17:52:01.366Z,12.8
2018-05-06T17:57:56.387Z,12.87
2018-05-06T18:03:51.392Z,11.99
2018-05-06T18:09:46.463Z,12.2
2018-05-06T18:15:41.395Z,10.56
2018-05-06T18:21:36.403Z,12.66
2018-05-06T18:27:31.475Z,12.02
2018-05-06T18:33:26.416Z,11.62
2018-05-06T18:39:21.392Z,12.37
2018-05-06T18:45:16.413Z,11.5
2018-05-06T18:51:11.388Z,11.55
2018-05-06T18:57:06.455Z,11.98
2018-05-06T19:03:01.473Z,11.89
2018-05-06T19:08:56.454Z,12.93
2018-05-06T19:14:51.479Z,12.94
2018-05-06T19:20:46.465Z,13.14
2018-05-06T19:26:41.495Z,12.14
2018-05-06T19:32:36.500Z,12.01
2018-05-06T19:38:31.426Z,12.32
2018-05-06T19:44:26.499Z,12.95
2018-05-06T19:50:21.453Z,13.64
2018-05-06T19:56:16.458Z,12.8
2018-05-06T20:02:11.445Z,12.26
2018-05-06T20:08:06.449Z,12.85
2018-05-06T20:14:01.513Z,12.78
2018-05-06T20:19:56.529Z,13.38
2018-05-06T20:25:51.535Z,13.47
2018-05-06T20:31:46.514Z,13.97
2018-05-06T20:37:41.510Z,14.05
2018-05-06T20:43:36.508Z,14.13
2018-05-06T20:49:31.530Z,12.93
2018-05-06T20:55:26.459Z,13.43
2018-05-06T21:01:21.475Z,12.78
2018-05-06T21:07:16.497Z,14.21
2018-05-06T21:13:11.527Z,14.31
2018-05-06T21:19:06.502Z,13.27
2018-05-06T21:25:01.514Z,13.52
2018-05-06T21:30:56.516Z,13.39
2018-05-06T21:36:51.500Z,12.85
2018-05-06T21:42:46.511Z,13.15
2018-05-06T21:48:41.508Z,13.31
2018-05-06T21:54:36.637Z,13.42
2018-05-06T22:00:31.547Z,13.5
2018-05-06T22:06:26.516Z,13.32
2018-05-06T22:12:21.526Z,13.7
2018-05-06T22:18:16.530Z,12.93
2018-05-06T22:24:11.555Z,13.7
2018-05-06T22:30:06.593Z,13.23
2018-05-06T22:36:01.579Z,13.8
2018-05-06T22:41:56.576Z,13.13
2018-05-06T22:47:51.574Z,14.63
2018-05-06T22:53:46.547Z,14.12
2018-05-06T22:59:41.634Z,13.47
2018-05-06T23:05:36.676Z,13.13
2018-05-06T23:11:31.614Z,14.7
2018-05-06T23:17:26.560Z,14.22
2018-05-06T23:23:21.600Z,13.46
2018-05-06T23:29:16.653Z,13.16
2018-05-06T23:35:11.601Z,15.03
2018-05-06T23:41:06.624Z,13.73
2018-05-06T23:47:01.630Z,13.47
2018-05-06T23:52:56.614Z,14.47
2018-05-06T23:58:51.616Z,15.11
